MDT,Max TemperatureF,Mean TemperatureF,Min TemperatureF,Max Dew PointF,MeanDew PointF,Min DewpointF,Max Humidity, Mean Humidity, Min Humidity, Max Sea Level PressureIn, Mean Sea Level PressureIn, Min Sea Level PressureIn, Max VisibilityMiles, Mean VisibilityMiles, Min VisibilityMiles, Max Wind SpeedMPH, Mean Wind SpeedMPH, Max Gust SpeedMPH,PrecipitationIn, CloudCover, Events, WindDirDegrees
2014-3-1,14,6,-2,9,1,-9,83,76,69,30.51,30.24,30.03,10,5,0,23,15,25,T,8,Snow,60
2014-3-2,6,1,-4,-4,-7,-12,79,71,62,30.63,30.49,30.28,10,10,10,12,6,14,0.00,6,,90
2014-3-3,43,22,1,31,16,-4,92,77,62,30.47,30.18,30.01,10,10,10,20,8,22,0.00,1,,161
2014-3-4,53,38,23,37,29,20,92,76,50,30.09,29.95,29.85,10,10,9,13,4,17,0.00,3,Rain,349
2014-3-5,47,39,30,36,30,27,92,79,65,30.25,30.15,30.05,10,10,10,14,6,16,0.00,4,,81
2014-3-6,71,51,30,34,29,24,85,51,17,30.10,29.86,29.70,10,10,10,16,7,28,0.00,0,,218
2014-3-7,49,38,27,35,28,21,85,68,50,30.29,30.04,29.71,10,10,2,28,16,33,T,6,Snow,15
2014-3-8,54,41,27,34,28,21,92,67,41,30.37,30.29,30.21,10,10,10,14,8,17,0.00,4,,326
2014-3-9,76,55,33,31,25,12,75,42,9,30.22,30.02,29.89,10,10,10,26,13,35,0.00,0,,276
2014-3-10,76,59,41,28,23,15,53,32,10,29.91,29.76,29.49,10,10,10,24,11,29,0.00,0,,264
2014-3-11,52,40,28,37,31,21,92,60,28,30.35,29.93,29.45,10,8,1,36,21,43,0.02,6,Snow,352
2014-3-12,54,41,27,23,20,14,81,51,20,30.37,30.28,30.18,10,10,10,21,12,29,0.00,0,,300
2014-3-13,68,46,23,25,17,5,85,42,9,30.18,29.94,29.74,10,10,10,16,8,23,0.00,0,,252
2014-3-14,64,47,30,27,22,14,78,46,14,30.06,29.95,29.85,10,10,10,18,11,28,0.00,0,,273
2014-3-15,59,45,31,39,31,22,85,55,25,30.31,30.05,29.78,10,10,7,38,19,48,0.01,5,Rain,339
2014-3-16,53,41,29,27,25,23,85,59,32,30.40,30.23,29.93,10,10,10,17,8,22,0.00,4,,282
2014-3-17,75,55,34,30,22,6,70,39,7,29.88,29.49,29.21,10,10,10,31,13,36,0.00,1,,230
2014-3-18,48,39,30,31,28,20,89,63,37,30.13,29.70,29.31,10,6,0,37,19,45,0.10,6,Fog-Snow,340
2014-3-19,52,38,24,28,23,18,85,56,26,30.21,30.14,30.05,10,10,10,23,10,30,0.00,0,,286
2014-3-20,67,55,42,24,19,13,81,47,13,30.05,29.90,29.76,10,10,10,14,9,,0.00,0,,240
2014-3-21,52,41,30,27,21,15,72,48,24,30.31,30.07,29.80,10,10,10,31,16,38,0.00,0,,354
2014-3-22,30,20,10,22,19,9,88,79,69,30.60,30.36,30.22,10,10,10,20,11,23,0.03,7,Snow,61
2014-3-23,50,28,6,32,19,3,91,69,46,30.60,30.32,30.07,,,,24,11,40,0.00,4,,177
2014-3-24,45,35,25,25,23,19,92,66,39,30.38,30.29,30.18,,,,18,10,23,0.00,6,,4
2014-3-25,53,41,28,24,20,13,81,57,32,30.44,30.19,29.89,10,10,10,22,12,30,0.00,8,,111
2014-3-26,76,51,25,43,28,19,81,47,12,29.84,29.50,29.28,10,10,7,31,10,37,0.00,,,160
2014-3-27,53,42,30,41,29,25,89,64,38,29.97,29.62,29.26,10,10,8,32,16,38,0.03,,Rain-Snow,360
2014-3-28,59,43,27,33,25,18,92,57,21,30.25,30.02,29.86,10,9,2,29,14,39,0.01,1,Rain-Snow,299
2014-3-29,70,47,23,29,21,15,92,52,12,30.26,30.07,29.85,10,10,8,31,13,40,0.00,0,,195
2014-3-30,74,52,30,29,25,18,69,41,13,29.83,29.65,29.34,10,10,10,21,9,27,0.00,0,,164
2014-3-31,61,45,28,35,25,19,82,52,22,30.12,29.76,29.35,10,8,1,52,25,67,T,3,Rain,321